Time,TemperatureF,DewpointF,PressureIn,WindDirection,WindDirectionDegrees,WindSpeedMPH,WindSpeedGustMPH,Humidity,HourlyPrecipIn,Conditions,Clouds,dailyrainin,SoftwareType,DateUTC
2013-06-14 00:01:00,76.6,69.6,29.18,SW,220,2.7,4.9,79,0.00,,,0.00,LWC V2.10 B1813,2013-06-14 05:01:00,
2013-06-14 00:06:00,76.5,69.4,29.18,SW,222,4.0,4.0,79,0.00,,,0.00,LWC V2.10 B1813,2013-06-14 05:06:00,
2013-06-14 00:11:00,76.5,69.4,29.18,SW,223,3.6,4.0,79,0.00,,,0.00,LWC V2.10 B1813,2013-06-14 05:11:00,
2013-06-14 00:16:00,76.3,69.3,29.18,WSW,246,3.1,5.4,79,0.00,,,0.00,LWC V2.10 B1813,2013-06-14 05:16:00,
2013-06-14 00:21:00,76.3,69.3,29.18,SW,216,3.1,4.9,79,0.00,,,0.00,LWC V2.10 B1813,2013-06-14 05:21:00,
2013-06-14 00:26:00,76.3,69.6,29.18,SW,230,6.3,6.3,80,0.00,,,0.00,LWC V2.10 B1813,2013-06-14 05:26:00,
2013-06-14 00:31:00,76.1,69.5,29.18,WSW,237,5.8,5.8,80,0.00,,,0.00,LWC V2.10 B1813,2013-06-14 05:31:00,
2013-06-14 00:36:00,76.1,69.5,29.18,SSW,197,2.7,4.9,80,0.00,,,0.00,LWC V2.10 B1813,2013-06-14 05:36:00,
2013-06-14 00:41:00,76.1,69.5,29.18,SW,214,3.1,3.6,80,0.00,,,0.00,LWC V2.10 B1813,2013-06-14 05:41:00,
2013-06-14 00:46:00,76.1,69.5,29.18,WSW,241,5.4,6.3,80,0.00,,,0.00,LWC V2.10 B1813,2013-06-14 05:46:00,
2013-06-14 00:51:00,75.9,69.3,29.18,SW,234,5.8,5.8,80,0.00,,,0.00,LWC V2.10 B1813,2013-06-14 05:51:00,
2013-06-14 00:56:00,75.9,69.3,29.18,SW,222,3.1,4.0,80,0.00,,,0.00,LWC V2.10 B1813,2013-06-14 05:56:00,
2013-06-14 01:01:00,75.9,69.3,29.18,SW,219,4.0,4.0,80,0.00,,,0.00,LWC V2.10 B1813,2013-06-14 06:01:00,
2013-06-14 01:06:00,76.1,69.5,29.18,West,263,2.7,3.1,80,0.00,,,0.00,LWC V2.10 B1813,2013-06-14 06:06:00,
2013-06-14 01:11:00,76.1,69.5,29.18,WSW,257,3.1,4.0,80,0.00,,,0.00,LWC V2.10 B1813,2013-06-14 06:11:00,
2013-06-14 01:16:00,76.1,69.5,29.18,SW,234,2.2,3.1,80,0.00,,,0.00,LWC V2.10 B1813,2013-06-14 06:16:00,
2013-06-14 01:21:00,75.9,69.3,29.18,SSW,199,3.6,4.0,80,0.00,,,0.00,LWC V2.10 B1813,2013-06-14 06:21:00,
2013-06-14 01:26:00,75.7,69.1,29.18,SW,217,4.0,4.0,80,0.00,,,0.00,LWC V2.10 B1813,2013-06-14 06:26:00,
2013-06-14 01:31:00,75.6,68.9,29.18,SW,217,2.2,2.7,80,0.00,,,0.00,LWC V2.10 B1813,2013-06-14 06:31:00,
2013-06-14 01:36:00,75.6,69.3,29.18,SW,225,2.2,2.7,81,0.00,,,0.00,LWC V2.10 B1813,2013-06-14 06:36:00,
2013-06-14 01:41:00,75.6,68.9,29.18,SW,226,0.0,0.0,80,0.00,,,0.00,LWC V2.10 B1813,2013-06-14 06:41:00,
2013-06-14 01:46:00,75.6,68.9,29.18,SW,226,0.0,0.0,80,0.00,,,0.00,LWC V2.10 B1813,2013-06-14 06:46:00,
2013-06-14 01:51:00,75.6,68.9,29.18,SW,236,0.0,0.0,80,0.00,,,0.00,LWC V2.10 B1813,2013-06-14 06:51:00,
2013-06-14 01:56:00,75.4,68.8,29.18,SW,236,0.0,0.0,80,0.00,,,0.00,LWC V2.10 B1813,2013-06-14 06:56:00,
2013-06-14 02:01:00,75.2,68.6,29.18,SW,236,0.0,0.0,80,0.00,,,0.00,LWC V2.10 B1813,2013-06-14 07:01:00,
2013-06-14 02:06:00,75.0,68.8,29.18,SW,236,0.0,0.0,81,0.00,,,0.00,LWC V2.10 B1813,2013-06-14 07:06:00,
2013-06-14 02:11:00,74.8,68.6,29.18,SW,236,0.0,0.0,81,0.00,,,0.00,LWC V2.10 B1813,2013-06-14 07:11:00,
2013-06-14 02:16:00,74.8,69.0,29.15,SW,236,0.0,0.0,82,0.00,,,0.00,LWC V2.10 B1813,2013-06-14 07:16:00,
2013-06-14 02:21:00,74.7,68.4,29.15,SW,236,0.0,0.0,81,0.00,,,0.00,LWC V2.10 B1813,2013-06-14 07:21:00,
2013-06-14 02:26:00,74.5,68.3,29.15,SW,236,0.0,0.0,81,0.00,,,0.00,LWC V2.10 B1813,2013-06-14 07:26:00,
2013-06-14 02:31:00,74.5,68.6,29.15,SW,236,0.0,0.0,82,0.00,,,0.00,LWC V2.10 B1813,2013-06-14 07:31:00,
2013-06-14 02:36:00,74.5,68.6,29.15,SW,236,0.0,0.0,82,0.00,,,0.00,LWC V2.10 B1813,2013-06-14 07:36:00,
2013-06-14 02:41:00,74.3,68.4,29.15,SW,236,0.0,0.0,82,0.00,,,0.00,LWC V2.10 B1813,2013-06-14 07:41:00,
2013-06-14 02:46:00,74.3,68.4,29.15,SW,236,0.0,0.0,82,0.00,,,0.00,LWC V2.10 B1813,2013-06-14 07:46:00,
2013-06-14 02:51:00,74.5,69.0,29.15,SW,236,0.0,0.0,83,0.00,,,0.00,LWC V2.10 B1813,2013-06-14 07:51:00,
2013-06-14 02:56:00,74.7,69.1,29.15,SW,236,0.0,0.0,83,0.00,,,0.00,LWC V2.10 B1813,2013-06-14 07:56:00,
2013-06-14 03:01:00,74.8,69.3,29.15,SSW,207,0.0,0.0,83,0.00,,,0.00,LWC V2.10 B1813,2013-06-14 08:01:00,
2013-06-14 03:06:00,74.7,69.1,29.15,SSW,207,0.0,0.0,83,0.00,,,0.00,LWC V2.10 B1813,2013-06-14 08:06:00,
2013-06-14 03:11:00,74.7,69.5,29.15,SSW,207,0.0,0.0,84,0.00,,,0.00,LWC V2.10 B1813,2013-06-14 08:11:00,
2013-06-14 03:16:00,74.5,69.3,29.15,SSW,207,0.0,0.0,84,0.00,,,0.00,LWC V2.10 B1813,2013-06-14 08:16:00,
2013-06-14 03:21:00,74.5,69.0,29.15,SSW,207,0.0,0.0,83,0.00,,,0.00,LWC V2.10 B1813,2013-06-14 08:21:00,
2013-06-14 03:26:00,74.3,68.8,29.15,SSW,207,0.0,0.0,83,0.00,,,0.00,LWC V2.10 B1813,2013-06-14 08:26:00,
2013-06-14 03:31:00,74.1,69.0,29.15,SSW,207,0.0,0.0,84,0.00,,,0.00,LWC V2.10 B1813,2013-06-14 08:31:00,
2013-06-14 03:36:00,74.1,69.0,29.15,SSW,207,0.0,0.0,84,0.00,,,0.00,LWC V2.10 B1813,2013-06-14 08:36:00,
2013-06-14 03:41:00,74.1,69.0,29.15,SSW,207,0.0,0.0,84,0.00,,,0.00,LWC V2.10 B1813,2013-06-14 08:41:00,
2013-06-14 03:46:00,74.1,69.0,29.15,SSW,207,0.0,0.0,84,0.00,,,0.00,LWC V2.10 B1813,2013-06-14 08:46:00,
2013-06-14 03:51:00,74.1,69.0,29.15,SSW,206,0.0,0.0,84,0.00,,,0.00,LWC V2.10 B1813,2013-06-14 08:51:00,
2013-06-14 03:56:00,73.9,68.8,29.15,SSW,206,0.0,0.0,84,0.00,,,0.00,LWC V2.10 B1813,2013-06-14 08:56:00,
2013-06-14 04:01:00,73.9,69.1,29.15,SSW,202,0.0,0.0,85,0.00,,,0.00,LWC V2.10 B1813,2013-06-14 09:01:00,
2013-06-14 04:06:00,73.9,69.1,29.15,SSW,202,0.0,0.0,85,0.00,,,0.00,LWC V2.10 B1813,2013-06-14 09:06:00,
2013-06-14 04:11:00,73.9,69.1,29.15,SSW,198,0.0,0.0,85,0.00,,,0.00,LWC V2.10 B1813,2013-06-14 09:11:00,
2013-06-14 04:16:00,73.9,69.1,29.15,East,83,0.0,0.0,85,0.00,,,0.00,LWC V2.10 B1813,2013-06-14 09:16:00,
2013-06-14 04:21:00,74.1,69.3,29.15,East,83,0.0,0.0,85,0.00,,,0.00,LWC V2.10 B1813,2013-06-14 09:21:00,
2013-06-14 04:26:00,74.1,69.7,29.15,East,81,0.0,0.0,86,0.00,,,0.00,LWC V2.10 B1813,2013-06-14 09:26:00,
2013-06-14 04:31:00,74.1,69.7,29.15,East,93,0.0,0.0,86,0.00,,,0.00,LWC V2.10 B1813,2013-06-14 09:31:00,
2013-06-14 04:36:00,74.1,69.7,29.15,East,89,0.0,0.0,86,0.00,,,0.00,LWC V2.10 B1813,2013-06-14 09:36:00,
2013-06-14 04:41:00,74.1,69.7,29.15,ENE,60,2.2,3.6,86,0.00,,,0.00,LWC V2.10 B1813,2013-06-14 09:41:00,
2013-06-14 04:46:00,74.1,69.7,29.18,ESE,110,3.6,3.6,86,0.00,,,0.00,LWC V2.10 B1813,2013-06-14 09:46:00,
2013-06-14 04:51:00,74.1,69.7,29.18,ENE,69,2.7,3.1,86,0.00,,,0.00,LWC V2.10 B1813,2013-06-14 09:51:00,
2013-06-14 04:56:00,74.1,69.7,29.18,ENE,77,2.7,3.1,86,0.00,,,0.00,LWC V2.10 B1813,2013-06-14 09:56:00,
2013-06-14 05:01:00,74.1,69.7,29.18,ENE,77,0.0,2.2,86,0.00,,,0.00,LWC V2.10 B1813,2013-06-14 10:01:00,
2013-06-14 05:06:00,73.9,69.5,29.18,ESE,103,2.7,2.7,86,0.00,,,0.00,LWC V2.10 B1813,2013-06-14 10:06:00,
2013-06-14 05:11:00,73.9,69.5,29.18,East,92,3.6,3.6,86,0.00,,,0.00,LWC V2.10 B1813,2013-06-14 10:11:00,
2013-06-14 05:16:00,74.1,69.7,29.18,East,85,2.2,3.1,86,0.00,,,0.00,LWC V2.10 B1813,2013-06-14 10:16:00,
2013-06-14 05:21:00,74.1,69.7,29.18,East,91,4.0,5.4,86,0.00,,,0.00,LWC V2.10 B1813,2013-06-14 10:21:00,
2013-06-14 05:26:00,74.1,69.7,29.18,East,88,2.7,3.6,86,0.00,,,0.00,LWC V2.10 B1813,2013-06-14 10:26:00,
2013-06-14 05:31:00,74.1,69.7,29.18,East,84,2.7,2.7,86,0.00,,,0.00,LWC V2.10 B1813,2013-06-14 10:31:00,
2013-06-14 05:36:00,74.1,70.0,29.18,East,91,2.2,3.1,87,0.00,,,0.00,LWC V2.10 B1813,2013-06-14 10:36:00,
2013-06-14 05:41:00,74.1,70.0,29.18,East,96,2.7,2.7,87,0.00,,,0.00,LWC V2.10 B1813,2013-06-14 10:41:00,
2013-06-14 05:46:00,74.1,70.0,29.18,East,85,2.7,3.1,87,0.00,,,0.00,LWC V2.10 B1813,2013-06-14 10:46:00,
2013-06-14 05:51:00,74.1,70.0,29.18,East,101,0.0,2.2,87,0.00,,,0.00,LWC V2.10 B1813,2013-06-14 10:51:00,
2013-06-14 05:56:00,74.1,70.0,29.18,East,90,0.0,2.2,87,0.00,,,0.00,LWC V2.10 B1813,2013-06-14 10:56:00,
2013-06-14 06:01:00,74.1,70.0,29.18,East,92,0.0,3.6,87,0.00,,,0.00,LWC V2.10 B1813,2013-06-14 11:01:00,
2013-06-14 06:06:00,74.3,70.2,29.18,East,96,2.2,2.7,87,0.00,,,0.00,LWC V2.10 B1813,2013-06-14 11:06:00,
2013-06-14 06:11:00,74.5,70.3,29.18,ESE,106,2.2,3.6,87,0.00,,,0.00,LWC V2.10 B1813,2013-06-14 11:11:00,
2013-06-14 06:16:00,74.5,70.3,29.18,East,97,0.0,3.1,87,0.00,,,0.00,LWC V2.10 B1813,2013-06-14 11:16:00,
2013-06-14 06:21:00,74.5,70.7,29.18,East,80,0.0,3.6,88,0.00,,,0.00,LWC V2.10 B1813,2013-06-14 11:21:00,
2013-06-14 06:26:00,74.5,70.7,29.18,East,97,2.2,3.1,88,0.00,,,0.00,LWC V2.10 B1813,2013-06-14 11:26:00,
2013-06-14 06:31:00,74.5,70.7,29.18,ESE,102,2.2,2.7,88,0.00,,,0.00,LWC V2.10 B1813,2013-06-14 11:31:00,
2013-06-14 06:37:00,74.5,70.7,29.18,East,95,0.0,3.1,88,0.00,,,0.00,LWC V2.10 B1813,2013-06-14 11:37:00,
2013-06-14 06:42:00,74.5,70.7,29.18,ESE,103,0.0,2.7,88,0.00,,,0.00,LWC V2.10 B1813,2013-06-14 11:42:00,
2013-06-14 06:47:00,74.5,70.7,29.18,ESE,105,3.1,3.1,88,0.00,,,0.00,LWC V2.10 B1813,2013-06-14 11:47:00,
2013-06-14 06:52:00,74.5,70.7,29.18,ESE,104,2.7,4.0,88,0.00,,,0.00,LWC V2.10 B1813,2013-06-14 11:52:00,
2013-06-14 06:57:00,74.7,70.9,29.18,East,95,3.1,3.1,88,0.00,,,0.00,LWC V2.10 B1813,2013-06-14 11:57:00,
2013-06-14 07:02:00,74.7,70.9,29.18,SSE,156,2.7,3.6,88,0.00,,,0.00,LWC V2.10 B1813,2013-06-14 12:02:00,
2013-06-14 07:07:00,74.7,70.9,29.18,SSE,149,0.0,0.0,88,0.00,,,0.00,LWC V2.10 B1813,2013-06-14 12:07:00,
2013-06-14 07:12:00,74.7,70.9,29.18,SSE,151,0.0,0.0,88,0.00,,,0.00,LWC V2.10 B1813,2013-06-14 12:12:00,
2013-06-14 07:17:00,75.0,71.2,29.18,SSE,152,0.0,0.0,88,0.00,,,0.00,LWC V2.10 B1813,2013-06-14 12:17:00,
2013-06-14 07:22:00,75.2,71.4,29.18,SSW,197,0.0,0.0,88,0.00,,,0.00,LWC V2.10 B1813,2013-06-14 12:22:00,
2013-06-14 07:27:00,75.2,71.4,29.18,SSW,197,0.0,0.0,88,0.00,,,0.00,LWC V2.10 B1813,2013-06-14 12:27:00,
2013-06-14 07:32:00,75.2,71.4,29.18,SE,129,0.0,0.0,88,0.00,,,0.00,LWC V2.10 B1813,2013-06-14 12:32:00,
2013-06-14 07:37:00,75.2,71.4,29.18,ESE,106,0.0,2.7,88,0.00,,,0.00,LWC V2.10 B1813,2013-06-14 12:37:00,
2013-06-14 07:42:00,75.2,71.4,29.18,ESE,114,3.6,4.0,88,0.00,,,0.00,LWC V2.10 B1813,2013-06-14 12:42:00,
2013-06-14 07:47:00,75.2,71.4,29.18,East,79,0.0,0.0,88,0.00,,,0.00,LWC V2.10 B1813,2013-06-14 12:47:00,
2013-06-14 07:52:00,75.4,71.6,29.18,East,101,0.0,0.0,88,0.00,,,0.00,LWC V2.10 B1813,2013-06-14 12:52:00,
2013-06-14 07:57:00,75.6,71.7,29.18,SSE,157,0.0,4.0,88,0.00,,,0.00,LWC V2.10 B1813,2013-06-14 12:57:00,
2013-06-14 07:58:00,75.7,71.9,29.18,SSE,151,0.0,2.7,88,0.00,,,0.00,LWC V2.10 B1813,2013-06-14 12:58:00,
2013-06-14 08:03:00,75.9,72.1,29.18,SE,137,0.0,4.0,88,0.00,,,0.00,LWC V2.10 B1813,2013-06-14 13:03:00,
2013-06-14 08:08:00,75.9,72.1,29.18,SE,141,2.2,4.9,88,0.00,,,0.00,LWC V2.10 B1813,2013-06-14 13:08:00,
2013-06-14 08:13:00,76.1,72.3,29.18,ESE,106,5.4,5.4,88,0.00,,,0.00,LWC V2.10 B1813,2013-06-14 13:13:00,
2013-06-14 08:18:00,76.1,72.3,29.20,ESE,102,5.4,6.3,88,0.00,,,0.00,LWC V2.10 B1813,2013-06-14 13:18:00,
2013-06-14 08:23:00,76.1,72.3,29.20,ENE,73,3.1,4.9,88,0.00,,,0.00,LWC V2.10 B1813,2013-06-14 13:23:00,
2013-06-14 08:28:00,76.1,72.3,29.20,SE,137,2.7,6.3,88,0.00,,,0.00,LWC V2.10 B1813,2013-06-14 13:28:00,
2013-06-14 08:33:00,76.1,72.3,29.20,ESE,116,2.2,3.6,88,0.00,,,0.00,LWC V2.10 B1813,2013-06-14 13:33:00,
2013-06-14 08:38:00,76.3,72.5,29.20,ESE,110,2.7,5.4,88,0.00,,,0.00,LWC V2.10 B1813,2013-06-14 13:38:00,
2013-06-14 08:43:00,76.3,72.5,29.20,ESE,122,4.0,5.4,88,0.00,,,0.00,LWC V2.10 B1813,2013-06-14 13:43:00,
2013-06-14 08:47:00,76.3,72.5,29.20,East,99,3.6,4.9,88,0.00,,,0.00,LWC V2.10 B1813,2013-06-14 13:47:00,
2013-06-14 08:52:00,76.3,72.5,29.20,ESE,116,2.2,3.1,88,0.00,,,0.00,LWC V2.10 B1813,2013-06-14 13:52:00,
2013-06-14 08:57:00,76.5,72.6,29.20,East,83,3.1,4.0,88,0.00,,,0.00,LWC V2.10 B1813,2013-06-14 13:57:00,
2013-06-14 09:02:00,76.5,72.6,29.20,ESE,102,4.0,4.9,88,0.00,,,0.00,LWC V2.10 B1813,2013-06-14 14:02:00,
2013-06-14 09:07:00,76.6,72.8,29.20,SE,138,2.7,5.8,88,0.00,,,0.00,LWC V2.10 B1813,2013-06-14 14:07:00,
2013-06-14 09:12:00,76.8,73.0,29.20,East,98,3.6,4.0,88,0.00,,,0.00,LWC V2.10 B1813,2013-06-14 14:12:00,
2013-06-14 09:17:00,77.5,73.7,29.20,East,90,6.3,6.7,88,0.00,,,0.00,LWC V2.10 B1813,2013-06-14 14:17:00,
2013-06-14 09:22:00,78.4,74.2,29.20,East,101,3.1,6.3,87,0.00,,,0.00,LWC V2.10 B1813,2013-06-14 14:22:00,
2013-06-14 09:27:00,79.0,74.8,29.20,ESE,113,5.4,5.4,87,0.00,,,0.00,LWC V2.10 B1813,2013-06-14 14:27:00,
2013-06-14 09:32:00,79.7,75.1,29.20,SE,145,5.4,7.6,86,0.00,,,0.00,LWC V2.10 B1813,2013-06-14 14:32:00,
2013-06-14 09:37:00,79.2,74.2,29.20,SE,134,4.0,6.3,85,0.00,,,0.00,LWC V2.10 B1813,2013-06-14 14:37:00,
2013-06-14 09:42:00,78.6,74.1,29.20,SSW,199,4.0,4.9,86,0.00,,,0.00,LWC V2.10 B1813,2013-06-14 14:42:00,
2013-06-14 09:47:00,78.6,74.1,29.20,SE,126,2.7,4.0,86,0.00,,,0.00,LWC V2.10 B1813,2013-06-14 14:47:00,
2013-06-14 09:52:00,79.0,74.1,29.20,East,88,3.6,6.3,85,0.00,,,0.00,LWC V2.10 B1813,2013-06-14 14:52:00,
2013-06-14 09:57:00,79.7,74.4,29.20,SE,138,2.7,5.8,84,0.00,,,0.00,LWC V2.10 B1813,2013-06-14 14:57:00,
2013-06-14 10:02:00,80.8,75.1,29.18,East,92,4.9,5.4,83,0.00,,,0.00,LWC V2.10 B1813,2013-06-14 15:02:00,
2013-06-14 10:07:00,81.1,75.1,29.18,SSE,165,3.6,3.6,82,0.00,,,0.00,LWC V2.10 B1813,2013-06-14 15:07:00,
2013-06-14 10:12:00,81.1,74.4,29.18,SSW,213,2.7,5.8,80,0.00,,,0.00,LWC V2.10 B1813,2013-06-14 15:12:00,
2013-06-14 10:17:00,81.5,74.3,29.18,SSE,148,5.8,8.7,79,0.00,,,0.00,LWC V2.10 B1813,2013-06-14 15:17:00,
2013-06-14 10:20:00,81.3,73.8,29.18,SE,139,3.6,11.0,78,0.00,,,0.00,LWC V2.10 B1813,2013-06-14 15:20:00,
2013-06-14 10:25:00,81.1,74.0,29.18,SSW,193,2.7,6.3,79,0.00,,,0.00,LWC V2.10 B1813,2013-06-14 15:25:00,
2013-06-14 10:30:00,82.2,74.7,29.18,SW,220,6.3,8.3,78,0.00,,,0.00,LWC V2.10 B1813,2013-06-14 15:30:00,
2013-06-14 10:35:00,82.0,74.1,29.18,South,181,4.0,8.1,77,0.00,,,0.00,LWC V2.10 B1813,2013-06-14 15:35:00,
2013-06-14 10:40:00,81.5,73.2,29.18,SSW,207,5.4,8.7,76,0.00,,,0.00,LWC V2.10 B1813,2013-06-14 15:40:00,
2013-06-14 10:45:00,81.5,73.2,29.18,ENE,63,6.3,6.3,76,0.00,,,0.00,LWC V2.10 B1813,2013-06-14 15:45:00,
2013-06-14 10:50:00,81.5,73.2,29.18,SSE,164,8.7,8.7,76,0.00,,,0.00,LWC V2.10 B1813,2013-06-14 15:50:00,
2013-06-14 10:55:00,81.3,72.6,29.18,SSE,150,5.8,8.3,75,0.00,,,0.00,LWC V2.10 B1813,2013-06-14 15:55:00,
2013-06-14 11:00:00,81.3,72.6,29.18,SSE,158,3.6,8.3,75,0.00,,,0.00,LWC V2.10 B1813,2013-06-14 16:00:00,
2013-06-14 11:05:00,81.1,72.4,29.20,SSW,193,5.4,8.3,75,0.00,,,0.00,LWC V2.10 B1813,2013-06-14 16:05:00,
2013-06-14 11:10:00,81.3,71.8,29.20,SW,222,8.7,10.5,73,0.00,,,0.00,LWC V2.10 B1813,2013-06-14 16:10:00,
2013-06-14 11:15:00,81.3,71.4,29.20,SW,225,3.6,5.4,72,0.00,,,0.00,LWC V2.10 B1813,2013-06-14 16:15:00,
2013-06-14 11:20:00,81.7,71.8,29.18,SSW,195,4.9,4.9,72,0.00,,,0.00,LWC V2.10 B1813,2013-06-14 16:20:00,
2013-06-14 11:25:00,81.7,70.9,29.18,SSE,160,4.9,5.8,70,0.00,,,0.00,LWC V2.10 B1813,2013-06-14 16:25:00,
2013-06-14 11:30:00,82.0,71.7,29.18,SSW,211,4.0,4.0,71,0.00,,,0.00,LWC V2.10 B1813,2013-06-14 16:30:00,
2013-06-14 11:35:00,82.2,71.4,29.18,SSW,203,4.0,4.0,70,0.00,,,0.00,LWC V2.10 B1813,2013-06-14 16:35:00,
2013-06-14 11:40:00,82.4,71.6,29.18,SE,127,3.6,5.4,70,0.00,,,0.00,LWC V2.10 B1813,2013-06-14 16:40:00,
2013-06-14 11:45:00,82.2,71.4,29.18,South,172,4.9,8.7,70,0.00,,,0.00,LWC V2.10 B1813,2013-06-14 16:45:00,
2013-06-14 11:50:00,81.9,70.7,29.18,SSE,149,8.7,8.7,69,0.00,,,0.00,LWC V2.10 B1813,2013-06-14 16:50:00,
2013-06-14 11:55:00,81.9,71.1,29.18,South,185,3.6,3.6,70,0.00,,,0.00,LWC V2.10 B1813,2013-06-14 16:55:00,
2013-06-14 12:00:00,81.9,71.1,29.18,SSE,165,6.3,6.3,70,0.00,,,0.00,LWC V2.10 B1813,2013-06-14 17:00:00,
2013-06-14 12:05:00,81.9,71.5,29.18,SSW,192,3.1,4.0,71,0.00,,,0.00,LWC V2.10 B1813,2013-06-14 17:05:00,
2013-06-14 12:10:00,82.0,71.7,29.18,South,181,5.4,5.8,71,0.00,,,0.00,LWC V2.10 B1813,2013-06-14 17:10:00,
2013-06-14 12:15:00,82.4,71.6,29.18,SSW,211,4.0,5.8,70,0.00,,,0.00,LWC V2.10 B1813,2013-06-14 17:15:00,
2013-06-14 12:20:00,82.4,71.6,29.18,South,187,4.0,6.3,70,0.00,,,0.00,LWC V2.10 B1813,2013-06-14 17:20:00,
2013-06-14 12:25:00,82.4,71.6,29.18,SSW,197,5.8,5.8,70,0.00,,,0.00,LWC V2.10 B1813,2013-06-14 17:25:00,
2013-06-14 12:30:00,82.9,72.1,29.18,SE,142,3.6,3.6,70,0.00,,,0.00,LWC V2.10 B1813,2013-06-14 17:30:00,
2013-06-14 12:35:00,83.3,72.0,29.18,SW,218,4.0,5.8,69,0.00,,,0.00,LWC V2.10 B1813,2013-06-14 17:35:00,
2013-06-14 12:40:00,83.1,71.4,29.18,SSE,155,2.7,6.3,68,0.00,,,0.00,LWC V2.10 B1813,2013-06-14 17:40:00,
2013-06-14 12:45:00,84.0,72.3,29.18,South,182,2.2,4.0,68,0.00,,,0.00,LWC V2.10 B1813,2013-06-14 17:45:00,
2013-06-14 12:50:00,84.4,72.2,29.18,SSW,205,3.6,6.3,67,0.00,,,0.00,LWC V2.10 B1813,2013-06-14 17:50:00,
2013-06-14 12:55:00,84.0,71.4,29.18,South,180,4.9,5.4,66,0.00,,,0.00,LWC V2.10 B1813,2013-06-14 17:55:00,
2013-06-14 13:00:00,84.4,71.3,29.18,SW,224,3.6,8.3,65,0.00,,,0.00,LWC V2.10 B1813,2013-06-14 18:00:00,
2013-06-14 13:05:00,85.5,72.3,29.15,SSE,161,3.6,4.5,65,0.00,,,0.00,LWC V2.10 B1813,2013-06-14 18:05:00,
2013-06-14 13:10:00,86.0,71.9,29.15,WSW,241,6.3,6.3,63,0.00,,,0.00,LWC V2.10 B1813,2013-06-14 18:10:00,
2013-06-14 13:15:00,86.0,71.4,29.18,SW,235,2.2,6.3,62,0.00,,,0.00,LWC V2.10 B1813,2013-06-14 18:15:00,
2013-06-14 13:20:00,86.4,72.2,29.18,East,90,3.6,6.3,63,0.00,,,0.00,LWC V2.10 B1813,2013-06-14 18:20:00,
2013-06-14 13:25:00,86.2,71.1,29.18,South,187,2.7,5.8,61,0.00,,,0.00,LWC V2.10 B1813,2013-06-14 18:25:00,
2013-06-14 13:30:00,85.8,71.3,29.18,SSW,209,4.0,4.0,62,0.00,,,0.00,LWC V2.10 B1813,2013-06-14 18:30:00,
2013-06-14 13:35:00,86.9,72.3,29.18,East,83,2.2,3.6,62,0.00,,,0.00,LWC V2.10 B1813,2013-06-14 18:35:00,
2013-06-14 13:41:00,87.3,72.1,29.18,SE,145,5.4,5.4,61,0.00,,,0.00,LWC V2.10 B1813,2013-06-14 18:41:00,
2013-06-14 13:46:00,87.6,72.5,29.18,East,101,3.6,6.3,61,0.00,,,0.00,LWC V2.10 B1813,2013-06-14 18:46:00,
2013-06-14 13:51:00,87.1,72.0,29.18,ENE,60,3.6,6.7,61,0.00,,,0.00,LWC V2.10 B1813,2013-06-14 18:51:00,
2013-06-14 13:56:00,86.7,71.6,29.18,ESE,107,0.0,2.7,61,0.00,,,0.00,LWC V2.10 B1813,2013-06-14 18:56:00,
2013-06-14 14:01:00,87.1,72.0,29.18,East,99,3.1,3.1,61,0.00,,,0.00,LWC V2.10 B1813,2013-06-14 19:01:00,
2013-06-14 14:06:00,87.6,72.0,29.18,NE,34,0.0,3.1,60,0.00,,,0.00,LWC V2.10 B1813,2013-06-14 19:06:00,
2013-06-14 14:11:00,86.7,70.1,29.18,ESE,102,0.0,6.3,58,0.00,,,0.00,LWC V2.10 B1813,2013-06-14 19:11:00,
2013-06-14 14:16:00,86.7,71.1,29.15,ESE,121,3.1,6.3,60,0.00,,,0.00,LWC V2.10 B1813,2013-06-14 19:16:00,
2013-06-14 14:21:00,86.7,71.1,29.15,ESE,113,3.1,4.0,60,0.00,,,0.00,LWC V2.10 B1813,2013-06-14 19:21:00,
2013-06-14 14:26:00,86.7,71.1,29.15,East,86,3.1,3.1,60,0.00,,,0.00,LWC V2.10 B1813,2013-06-14 19:26:00,
2013-06-14 14:31:00,87.1,71.5,29.15,ESE,110,2.2,5.8,60,0.00,,,0.00,LWC V2.10 B1813,2013-06-14 19:31:00,
2013-06-14 14:36:00,87.3,71.6,29.15,ESE,102,3.6,4.5,60,0.00,,,0.00,LWC V2.10 B1813,2013-06-14 19:36:00,
2013-06-14 14:41:00,87.6,71.5,29.15,ESE,118,2.7,3.1,59,0.00,,,0.00,LWC V2.10 B1813,2013-06-14 19:41:00,
2013-06-14 14:46:00,87.6,71.0,29.15,SE,143,3.6,5.8,58,0.00,,,0.00,LWC V2.10 B1813,2013-06-14 19:46:00,
2013-06-14 14:51:00,88.0,71.3,29.15,ESE,109,5.4,8.3,58,0.00,,,0.00,LWC V2.10 B1813,2013-06-14 19:51:00,
2013-06-14 14:56:00,88.5,71.3,29.15,East,89,5.8,5.8,57,0.00,,,0.00,LWC V2.10 B1813,2013-06-14 19:56:00,
2013-06-14 15:01:00,88.7,70.9,29.15,East,84,2.2,8.1,56,0.00,,,0.00,LWC V2.10 B1813,2013-06-14 20:01:00,
2013-06-14 15:06:00,88.0,70.3,29.15,ESE,104,6.3,8.1,56,0.00,,,0.00,LWC V2.10 B1813,2013-06-14 20:06:00,
2013-06-14 15:12:00,87.4,70.8,29.15,SSE,154,5.8,7.6,58,0.00,,,0.00,LWC V2.10 B1813,2013-06-14 20:12:00,
2013-06-14 15:17:00,87.1,70.5,29.15,ESE,105,5.8,5.8,58,0.00,,,0.00,LWC V2.10 B1813,2013-06-14 20:17:00,
2013-06-14 15:22:00,86.4,70.3,29.15,SSE,149,3.1,4.9,59,0.00,,,0.00,LWC V2.10 B1813,2013-06-14 20:22:00,
2013-06-14 15:27:00,86.0,70.0,29.15,East,97,3.6,6.3,59,0.00,,,0.00,LWC V2.10 B1813,2013-06-14 20:27:00,
2013-06-14 15:32:00,85.8,70.8,29.15,ENE,76,4.0,5.8,61,0.00,,,0.00,LWC V2.10 B1813,2013-06-14 20:32:00,
2013-06-14 15:37:00,85.6,70.6,29.15,ESE,103,0.0,5.4,61,0.00,,,0.00,LWC V2.10 B1813,2013-06-14 20:37:00,
2013-06-14 15:42:00,85.8,70.8,29.15,ENE,63,0.0,4.9,61,0.00,,,0.00,LWC V2.10 B1813,2013-06-14 20:42:00,
2013-06-14 15:47:00,85.8,71.3,29.15,SE,144,4.0,7.2,62,0.00,,,0.00,LWC V2.10 B1813,2013-06-14 20:47:00,
2013-06-14 15:52:00,85.5,71.9,29.15,SSE,157,3.1,5.4,64,0.00,,,0.00,LWC V2.10 B1813,2013-06-14 20:52:00,
2013-06-14 15:57:00,85.1,71.5,29.15,SSW,204,2.7,7.6,64,0.00,,,0.00,LWC V2.10 B1813,2013-06-14 20:57:00,
2013-06-14 16:02:00,84.4,71.8,29.15,South,172,5.4,6.3,66,0.00,,,0.00,LWC V2.10 B1813,2013-06-14 21:02:00,
2013-06-14 16:07:00,84.0,71.9,29.15,SW,224,5.4,6.3,67,0.00,,,0.00,LWC V2.10 B1813,2013-06-14 21:07:00,
2013-06-14 16:12:00,83.8,71.7,29.15,SSW,194,3.1,7.6,67,0.00,,,0.00,LWC V2.10 B1813,2013-06-14 21:12:00,
2013-06-14 16:17:00,83.8,72.1,29.15,SW,218,4.9,5.8,68,0.00,,,0.00,LWC V2.10 B1813,2013-06-14 21:17:00,
2013-06-14 16:22:00,83.8,72.1,29.15,SSW,193,3.1,5.8,68,0.00,,,0.00,LWC V2.10 B1813,2013-06-14 21:22:00,
2013-06-14 16:27:00,83.8,72.1,29.15,SSW,203,2.2,3.1,68,0.00,,,0.00,LWC V2.10 B1813,2013-06-14 21:27:00,
2013-06-14 16:32:00,83.8,71.7,29.15,SSW,193,3.1,4.0,67,0.00,,,0.00,LWC V2.10 B1813,2013-06-14 21:32:00,
2013-06-14 16:37:00,83.8,71.2,29.15,SW,216,2.2,3.6,66,0.00,,,0.00,LWC V2.10 B1813,2013-06-14 21:37:00,
2013-06-14 16:42:00,84.0,71.4,29.15,SW,215,2.2,4.0,66,0.00,,,0.00,LWC V2.10 B1813,2013-06-14 21:42:00,
2013-06-14 16:47:00,83.8,71.2,29.15,South,180,3.1,5.8,66,0.00,,,0.00,LWC V2.10 B1813,2013-06-14 21:47:00,
2013-06-14 16:52:00,83.8,71.2,29.15,SSW,198,2.7,3.6,66,0.00,,,0.00,LWC V2.10 B1813,2013-06-14 21:52:00,
2013-06-14 16:57:00,83.8,71.7,29.15,South,180,3.1,3.6,67,0.00,,,0.00,LWC V2.10 B1813,2013-06-14 21:57:00,
2013-06-14 17:02:00,83.8,71.7,29.15,South,188,2.2,2.2,67,0.00,,,0.00,LWC V2.10 B1813,2013-06-14 22:02:00,
2013-06-14 17:07:00,83.8,71.7,29.15,South,173,2.2,4.9,67,0.00,,,0.00,LWC V2.10 B1813,2013-06-14 22:07:00,
2013-06-14 17:12:00,83.8,71.7,29.15,SSE,167,2.2,2.7,67,0.00,,,0.00,LWC V2.10 B1813,2013-06-14 22:12:00,
2013-06-14 17:17:00,84.2,72.0,29.12,South,186,0.0,2.7,67,0.00,,,0.00,LWC V2.10 B1813,2013-06-14 22:17:00,
2013-06-14 17:22:00,84.0,72.3,29.12,SSW,206,0.0,2.7,68,0.00,,,0.00,LWC V2.10 B1813,2013-06-14 22:22:00,
2013-06-14 17:27:00,84.0,72.3,29.12,South,185,3.1,3.1,68,0.00,,,0.00,LWC V2.10 B1813,2013-06-14 22:27:00,
2013-06-14 17:32:00,84.2,72.5,29.12,South,186,0.0,2.7,68,0.00,,,0.00,LWC V2.10 B1813,2013-06-14 22:32:00,
2013-06-14 17:37:00,84.6,72.8,29.12,SW,220,2.7,4.0,68,0.00,,,0.00,LWC V2.10 B1813,2013-06-14 22:37:00,
2013-06-14 17:42:00,84.7,73.0,29.12,SSW,210,0.0,4.9,68,0.00,,,0.00,LWC V2.10 B1813,2013-06-14 22:42:00,
2013-06-14 17:47:00,84.7,72.5,29.12,SSW,211,4.0,4.0,67,0.00,,,0.00,LWC V2.10 B1813,2013-06-14 22:47:00,
2013-06-14 17:52:00,84.7,72.5,29.12,SW,219,2.2,4.0,67,0.00,,,0.00,LWC V2.10 B1813,2013-06-14 22:52:00,
2013-06-14 17:57:00,84.7,72.5,29.12,WSW,237,4.0,4.5,67,0.00,,,0.00,LWC V2.10 B1813,2013-06-14 22:57:00,
2013-06-14 18:02:00,85.1,72.9,29.12,SW,221,3.1,3.1,67,0.00,,,0.00,LWC V2.10 B1813,2013-06-14 23:02:00,
2013-06-14 18:07:00,85.5,72.8,29.12,WSW,241,2.7,3.1,66,0.00,,,0.00,LWC V2.10 B1813,2013-06-14 23:07:00,
2013-06-14 18:12:00,85.6,72.5,29.12,WSW,244,0.0,0.0,65,0.00,,,0.00,LWC V2.10 B1813,2013-06-14 23:12:00,
2013-06-14 18:17:00,85.6,72.5,29.12,South,187,0.0,0.0,65,0.00,,,0.00,LWC V2.10 B1813,2013-06-14 23:17:00,
2013-06-14 18:22:00,85.5,71.9,29.12,SW,230,0.0,3.6,64,0.00,,,0.00,LWC V2.10 B1813,2013-06-14 23:22:00,
2013-06-14 18:27:00,85.5,72.3,29.12,SW,229,2.2,2.2,65,0.00,,,0.00,LWC V2.10 B1813,2013-06-14 23:27:00,
2013-06-14 18:32:00,85.3,72.2,29.12,South,184,0.0,2.7,65,0.00,,,0.00,LWC V2.10 B1813,2013-06-14 23:32:00,
2013-06-14 18:37:00,84.9,71.4,29.12,South,172,2.7,4.0,64,0.00,,,0.00,LWC V2.10 B1813,2013-06-14 23:37:00,
2013-06-14 18:42:00,84.9,71.8,29.12,SSW,208,2.7,3.1,65,0.00,,,0.00,LWC V2.10 B1813,2013-06-14 23:42:00,
2013-06-14 18:47:00,84.7,71.6,29.12,SSW,207,0.0,2.7,65,0.00,,,0.00,LWC V2.10 B1813,2013-06-14 23:47:00,
2013-06-14 18:52:00,84.7,71.6,29.12,SSW,207,0.0,0.0,65,0.00,,,0.00,LWC V2.10 B1813,2013-06-14 23:52:00,
2013-06-14 18:57:00,84.6,71.9,29.12,SSW,207,0.0,0.0,66,0.00,,,0.00,LWC V2.10 B1813,2013-06-14 23:57:00,
2013-06-14 19:02:00,84.6,71.9,29.12,SSW,200,0.0,0.0,66,0.00,,,0.00,LWC V2.10 B1813,2013-06-15 00:02:00,
2013-06-14 19:07:00,84.4,71.3,29.12,South,189,0.0,0.0,65,0.00,,,0.00,LWC V2.10 B1813,2013-06-15 00:07:00,
2013-06-14 19:12:00,84.2,71.1,29.12,South,189,0.0,0.0,65,0.00,,,0.00,LWC V2.10 B1813,2013-06-15 00:12:00,
2013-06-14 19:17:00,84.4,71.3,29.12,South,189,0.0,0.0,65,0.00,,,0.00,LWC V2.10 B1813,2013-06-15 00:17:00,
2013-06-14 19:22:00,84.2,71.1,29.12,South,189,0.0,0.0,65,0.00,,,0.00,LWC V2.10 B1813,2013-06-15 00:22:00,
2013-06-14 19:27:00,84.2,71.1,29.12,South,189,0.0,0.0,65,0.00,,,0.00,LWC V2.10 B1813,2013-06-15 00:27:00,
2013-06-14 19:32:00,84.2,71.1,29.12,South,189,0.0,0.0,65,0.00,,,0.00,LWC V2.10 B1813,2013-06-15 00:32:00,
2013-06-14 19:37:00,84.0,71.4,29.12,South,189,0.0,0.0,66,0.00,,,0.00,LWC V2.10 B1813,2013-06-15 00:37:00,
2013-06-14 19:42:00,83.8,71.2,29.12,South,189,0.0,0.0,66,0.00,,,0.00,LWC V2.10 B1813,2013-06-15 00:42:00,
2013-06-14 19:47:00,83.8,71.2,29.12,South,189,0.0,0.0,66,0.00,,,0.00,LWC V2.10 B1813,2013-06-15 00:47:00,
2013-06-14 19:52:00,83.7,71.5,29.12,South,189,0.0,0.0,67,0.00,,,0.00,LWC V2.10 B1813,2013-06-15 00:52:00,
2013-06-14 19:57:00,83.5,71.3,29.12,South,189,0.0,0.0,67,0.00,,,0.00,LWC V2.10 B1813,2013-06-15 00:57:00,
2013-06-14 20:02:00,83.5,71.3,29.12,South,189,0.0,0.0,67,0.00,,,0.00,LWC V2.10 B1813,2013-06-15 01:02:00,
2013-06-14 20:07:00,83.3,71.2,29.12,South,189,0.0,0.0,67,0.00,,,0.00,LWC V2.10 B1813,2013-06-15 01:07:00,
2013-06-14 20:12:00,83.3,71.2,29.12,South,189,0.0,0.0,67,0.00,,,0.00,LWC V2.10 B1813,2013-06-15 01:12:00,
2013-06-14 20:17:00,83.3,71.2,29.12,South,189,0.0,0.0,67,0.00,,,0.00,LWC V2.10 B1813,2013-06-15 01:17:00,
2013-06-14 20:22:00,83.1,71.0,29.12,South,188,0.0,0.0,67,0.00,,,0.00,LWC V2.10 B1813,2013-06-15 01:22:00,
2013-06-14 20:27:00,83.1,71.0,29.12,South,188,0.0,0.0,67,0.00,,,0.00,LWC V2.10 B1813,2013-06-15 01:27:00,
2013-06-14 20:32:00,83.1,70.6,29.12,South,187,0.0,0.0,66,0.00,,,0.00,LWC V2.10 B1813,2013-06-15 01:32:00,
2013-06-14 20:37:00,82.9,70.8,29.12,South,187,0.0,0.0,67,0.00,,,0.00,LWC V2.10 B1813,2013-06-15 01:37:00,
2013-06-14 20:42:00,82.9,70.8,29.12,South,187,0.0,0.0,67,0.00,,,0.00,LWC V2.10 B1813,2013-06-15 01:42:00,
2013-06-14 20:47:00,82.8,70.7,29.12,South,181,0.0,0.0,67,0.00,,,0.00,LWC V2.10 B1813,2013-06-15 01:47:00,
2013-06-14 20:52:00,82.8,70.7,29.12,South,181,0.0,0.0,67,0.00,,,0.00,LWC V2.10 B1813,2013-06-15 01:52:00,
2013-06-14 20:57:00,82.6,70.9,29.12,South,187,0.0,0.0,68,0.00,,,0.00,LWC V2.10 B1813,2013-06-15 01:57:00,
2013-06-14 21:02:00,82.4,70.8,29.12,South,186,0.0,0.0,68,0.00,,,0.00,LWC V2.10 B1813,2013-06-15 02:02:00,
2013-06-14 21:07:00,82.6,70.9,29.12,SSW,208,2.7,2.7,68,0.00,,,0.00,LWC V2.10 B1813,2013-06-15 02:07:00,
2013-06-14 21:12:00,82.8,70.7,29.12,SSW,208,0.0,2.2,67,0.00,,,0.00,LWC V2.10 B1813,2013-06-15 02:12:00,
2013-06-14 21:17:00,82.8,71.1,29.12,SSW,208,0.0,0.0,68,0.00,,,0.00,LWC V2.10 B1813,2013-06-15 02:17:00,
2013-06-14 21:22:00,82.6,70.9,29.12,SSW,208,0.0,0.0,68,0.00,,,0.00,LWC V2.10 B1813,2013-06-15 02:22:00,
2013-06-14 21:27:00,82.4,70.8,29.12,SSW,208,0.0,0.0,68,0.00,,,0.00,LWC V2.10 B1813,2013-06-15 02:27:00,
2013-06-14 21:32:00,82.8,71.1,29.12,SSW,208,0.0,0.0,68,0.00,,,0.00,LWC V2.10 B1813,2013-06-15 02:32:00,
2013-06-14 21:37:00,82.6,70.9,29.12,SSW,208,0.0,0.0,68,0.00,,,0.00,LWC V2.10 B1813,2013-06-15 02:37:00,
2013-06-14 21:42:00,82.4,71.2,29.12,SSW,208,0.0,0.0,69,0.00,,,0.00,LWC V2.10 B1813,2013-06-15 02:42:00,
2013-06-14 21:47:00,82.2,71.9,29.15,West,274,0.0,0.0,71,0.00,,,0.00,LWC V2.10 B1813,2013-06-15 02:47:00,
2013-06-14 21:52:00,82.0,72.1,29.15,West,274,0.0,0.0,72,0.00,,,0.00,LWC V2.10 B1813,2013-06-15 02:52:00,
2013-06-14 21:57:00,81.9,72.3,29.15,West,274,0.0,0.0,73,0.00,,,0.00,LWC V2.10 B1813,2013-06-15 02:57:00,
2013-06-14 22:02:00,81.9,72.3,29.15,West,274,0.0,0.0,73,0.00,,,0.00,LWC V2.10 B1813,2013-06-15 03:02:00,
2013-06-14 22:07:00,81.7,72.2,29.15,West,274,0.0,0.0,73,0.00,,,0.00,LWC V2.10 B1813,2013-06-15 03:07:00,
2013-06-14 22:12:00,81.7,72.2,29.15,West,274,0.0,0.0,73,0.00,,,0.00,LWC V2.10 B1813,2013-06-15 03:12:00,
2013-06-14 22:17:00,81.7,71.8,29.15,West,274,0.0,0.0,72,0.00,,,0.00,LWC V2.10 B1813,2013-06-15 03:17:00,
2013-06-14 22:22:00,81.7,71.8,29.15,West,274,0.0,0.0,72,0.00,,,0.00,LWC V2.10 B1813,2013-06-15 03:22:00,
2013-06-14 22:27:00,81.7,71.8,29.15,West,274,0.0,0.0,72,0.00,,,0.00,LWC V2.10 B1813,2013-06-15 03:27:00,
2013-06-14 22:32:00,81.7,71.8,29.15,West,274,0.0,0.0,72,0.00,,,0.00,LWC V2.10 B1813,2013-06-15 03:32:00,
2013-06-14 22:37:00,81.9,71.9,29.15,West,274,0.0,0.0,72,0.00,,,0.00,LWC V2.10 B1813,2013-06-15 03:37:00,
2013-06-14 22:43:00,81.7,71.3,29.15,West,274,0.0,0.0,71,0.00,,,0.00,LWC V2.10 B1813,2013-06-15 03:43:00,
2013-06-14 22:48:00,81.7,71.8,29.15,West,274,0.0,0.0,72,0.00,,,0.00,LWC V2.10 B1813,2013-06-15 03:48:00,
2013-06-14 22:53:00,81.7,72.2,29.15,West,274,0.0,0.0,73,0.00,,,0.00,LWC V2.10 B1813,2013-06-15 03:53:00,
2013-06-14 22:58:00,81.5,72.0,29.15,West,274,0.0,0.0,73,0.00,,,0.00,LWC V2.10 B1813,2013-06-15 03:58:00,
2013-06-14 23:01:00,81.3,71.4,29.15,West,274,0.0,0.0,72,0.00,,,0.00,LWC V2.10 B1813,2013-06-15 04:01:00,
2013-06-14 23:06:00,81.3,71.4,29.15,West,274,0.0,0.0,72,0.00,,,0.00,LWC V2.10 B1813,2013-06-15 04:06:00,
2013-06-14 23:11:00,81.1,71.2,29.15,West,274,0.0,0.0,72,0.00,,,0.00,LWC V2.10 B1813,2013-06-15 04:11:00,
2013-06-14 23:16:00,81.1,71.2,29.15,West,274,0.0,0.0,72,0.00,,,0.00,LWC V2.10 B1813,2013-06-15 04:16:00,
2013-06-14 23:21:00,81.1,72.0,29.15,West,274,0.0,0.0,74,0.00,,,0.00,LWC V2.10 B1813,2013-06-15 04:21:00,
2013-06-14 23:26:00,81.0,71.9,29.15,West,274,0.0,0.0,74,0.00,,,0.00,LWC V2.10 B1813,2013-06-15 04:26:00,
2013-06-14 23:31:00,80.8,71.7,29.15,West,274,0.0,0.0,74,0.00,,,0.00,LWC V2.10 B1813,2013-06-15 04:31:00,
2013-06-14 23:36:00,80.8,71.3,29.15,West,274,0.0,0.0,73,0.00,,,0.00,LWC V2.10 B1813,2013-06-15 04:36:00,
2013-06-14 23:41:00,80.8,71.3,29.15,West,274,0.0,0.0,73,0.00,,,0.00,LWC V2.10 B1813,2013-06-15 04:41:00,
2013-06-14 23:46:00,80.6,71.5,29.15,West,277,0.0,0.0,74,0.00,,,0.00,LWC V2.10 B1813,2013-06-15 04:46:00,
2013-06-14 23:51:00,80.4,71.3,29.15,NNE,19,0.0,0.0,74,0.00,,,0.00,LWC V2.10 B1813,2013-06-15 04:51:00,
2013-06-14 23:56:00,80.2,71.2,29.15,NNE,19,0.0,0.0,74,0.00,,,0.00,LWC V2.10 B1813,2013-06-15 04:56:00,